Federalsburg, Maryland
Current Conditions -  °F | °C
As of 1:38 AM on Wednesday 28 Jan 2015 (Local Time) from KESN Reporting Station
Clear Clear  
Wind Chill: 18°   Ceiling: Unl
Heat Index: 29°   Visibility: 10mi
Dew Point: 13°   Wind: 14mph
Humidity: 52%   Direction: 360°N
Pressure: 30"   Gusts: 21mph
Location:  38.69°N, 75.77°W
Report Text: KESN 280638Z AUTO 36012G18KT 10SM CLR M02/M10 A3000 RMK AO2 T10171105
Loading
Personal Weather Stations






























Interactive Weather Map New forecast layout! Learn more

10-Day Weather Forecast

Advertisements
Track Severe Weather on mobile